sensor_id;sensor_type;location;lat;lon;timestamp;P1;durP1;ratioP1;P2;durP2;ratioP2
18296;SDS011;18066;52.106;5.534;2022-07-19T00:02:27;24.60;;;10.98;;
18296;SDS011;18066;52.106;5.534;2022-07-19T00:04:54;23.38;;;10.43;;
18296;SDS011;18066;52.106;5.534;2022-07-19T00:07:21;22.40;;;10.32;;
18296;SDS011;18066;52.106;5.534;2022-07-19T00:09:47;17.40;;;10.23;;
18296;SDS011;18066;52.106;5.534;2022-07-19T00:12:14;14.90;;;9.38;;
18296;SDS011;18066;52.106;5.534;2022-07-19T00:14:41;19.35;;;9.70;;
18296;SDS011;18066;52.106;5.534;2022-07-19T00:17:07;17.02;;;9.20;;
18296;SDS011;18066;52.106;5.534;2022-07-19T00:19:35;19.98;;;9.63;;
18296;SDS011;18066;52.106;5.534;2022-07-19T00:22:02;14.35;;;8.50;;
18296;SDS011;18066;52.106;5.534;2022-07-19T00:24:29;18.27;;;9.68;;
18296;SDS011;18066;52.106;5.534;2022-07-19T00:26:56;18.35;;;10.93;;
18296;SDS011;18066;52.106;5.534;2022-07-19T00:29:22;16.90;;;10.10;;
18296;SDS011;18066;52.106;5.534;2022-07-19T00:31:49;18.33;;;9.07;;
18296;SDS011;18066;52.106;5.534;2022-07-19T00:34:16;24.90;;;9.93;;
18296;SDS011;18066;52.106;5.534;2022-07-19T00:36:44;19.25;;;10.75;;
18296;SDS011;18066;52.106;5.534;2022-07-19T00:39:11;15.73;;;10.07;;
18296;SDS011;18066;52.106;5.534;2022-07-19T00:41:38;22.08;;;9.63;;
18296;SDS011;18066;52.106;5.534;2022-07-19T00:44:06;16.55;;;8.60;;
18296;SDS011;18066;52.106;5.534;2022-07-19T00:46:33;17.27;;;8.13;;
18296;SDS011;18066;52.106;5.534;2022-07-19T00:49:00;16.10;;;8.90;;
18296;SDS011;18066;52.106;5.534;2022-07-19T00:51:27;15.73;;;8.90;;
18296;SDS011;18066;52.106;5.534;2022-07-19T00:53:55;15.63;;;8.70;;
18296;SDS011;18066;52.106;5.534;2022-07-19T00:56:24;12.88;;;8.60;;
18296;SDS011;18066;52.106;5.534;2022-07-19T00:58:52;19.23;;;9.55;;
18296;SDS011;18066;52.106;5.534;2022-07-19T01:01:20;16.10;;;8.88;;
18296;SDS011;18066;52.106;5.534;2022-07-19T01:03:47;15.82;;;9.25;;
18296;SDS011;18066;52.106;5.534;2022-07-19T01:06:15;15.88;;;8.75;;
18296;SDS011;18066;52.106;5.534;2022-07-19T01:08:41;11.52;;;8.38;;
18296;SDS011;18066;52.106;5.534;2022-07-19T01:11:09;16.13;;;9.63;;
18296;SDS011;18066;52.106;5.534;2022-07-19T01:13:36;11.85;;;8.18;;
18296;SDS011;18066;52.106;5.534;2022-07-19T01:16:03;24.00;;;9.77;;
18296;SDS011;18066;52.106;5.534;2022-07-19T01:18:31;15.68;;;8.82;;
18296;SDS011;18066;52.106;5.534;2022-07-19T01:20:58;13.98;;;8.98;;
18296;SDS011;18066;52.106;5.534;2022-07-19T01:23:26;14.10;;;8.38;;
18296;SDS011;18066;52.106;5.534;2022-07-19T01:25:53;14.55;;;9.23;;
18296;SDS011;18066;52.106;5.534;2022-07-19T01:28:19;14.55;;;9.18;;
18296;SDS011;18066;52.106;5.534;2022-07-19T01:30:46;14.93;;;9.00;;
18296;SDS011;18066;52.106;5.534;2022-07-19T01:33:13;13.75;;;8.27;;
18296;SDS011;18066;52.106;5.534;2022-07-19T01:35:39;14.13;;;8.57;;
18296;SDS011;18066;52.106;5.534;2022-07-19T01:38:06;14.65;;;8.98;;
18296;SDS011;18066;52.106;5.534;2022-07-19T01:40:34;13.40;;;8.48;;
18296;SDS011;18066;52.106;5.534;2022-07-19T01:43:01;17.83;;;8.75;;
18296;SDS011;18066;52.106;5.534;2022-07-19T01:45:28;15.07;;;9.48;;
18296;SDS011;18066;52.106;5.534;2022-07-19T01:47:55;15.45;;;8.40;;
18296;SDS011;18066;52.106;5.534;2022-07-19T01:50:21;16.88;;;8.55;;
18296;SDS011;18066;52.106;5.534;2022-07-19T01:52:48;15.10;;;7.85;;
18296;SDS011;18066;52.106;5.534;2022-07-19T01:55:15;20.65;;;9.50;;
18296;SDS011;18066;52.106;5.534;2022-07-19T01:57:43;19.80;;;8.80;;
18296;SDS011;18066;52.106;5.534;2022-07-19T02:00:10;19.52;;;10.23;;
18296;SDS011;18066;52.106;5.534;2022-07-19T02:02:38;16.83;;;9.45;;
18296;SDS011;18066;52.106;5.534;2022-07-19T02:05:05;14.32;;;8.98;;
18296;SDS011;18066;52.106;5.534;2022-07-19T02:07:32;16.38;;;8.68;;
18296;SDS011;18066;52.106;5.534;2022-07-19T02:10:00;16.35;;;8.07;;
18296;SDS011;18066;52.106;5.534;2022-07-19T02:12:26;14.35;;;8.77;;
18296;SDS011;18066;52.106;5.534;2022-07-19T02:14:55;17.52;;;8.40;;
18296;SDS011;18066;52.106;5.534;2022-07-19T02:17:22;11.23;;;8.07;;
18296;SDS011;18066;52.106;5.534;2022-07-19T02:19:48;16.50;;;8.93;;
18296;SDS011;18066;52.106;5.534;2022-07-19T02:22:15;16.52;;;8.65;;
18296;SDS011;18066;52.106;5.534;2022-07-19T02:24:42;14.95;;;8.65;;
18296;SDS011;18066;52.106;5.534;2022-07-19T02:27:09;16.10;;;8.52;;
18296;SDS011;18066;52.106;5.534;2022-07-19T02:29:36;11.38;;;7.85;;
18296;SDS011;18066;52.106;5.534;2022-07-19T02:32:05;13.77;;;8.25;;
18296;SDS011;18066;52.106;5.534;2022-07-19T02:34:33;15.38;;;7.97;;
18296;SDS011;18066;52.106;5.534;2022-07-19T02:37:00;17.48;;;8.30;;
18296;SDS011;18066;52.106;5.534;2022-07-19T02:39:27;12.50;;;8.07;;
18296;SDS011;18066;52.106;5.534;2022-07-19T02:41:54;18.15;;;7.97;;
18296;SDS011;18066;52.106;5.534;2022-07-19T02:44:20;15.32;;;8.10;;
18296;SDS011;18066;52.106;5.534;2022-07-19T02:46:47;11.20;;;8.30;;
18296;SDS011;18066;52.106;5.534;2022-07-19T02:49:15;18.00;;;8.40;;
18296;SDS011;18066;52.106;5.534;2022-07-19T02:51:42;12.05;;;7.60;;
18296;SDS011;18066;52.106;5.534;2022-07-19T02:54:09;12.80;;;7.75;;
18296;SDS011;18066;52.106;5.534;2022-07-19T02:56:35;17.60;;;8.57;;
18296;SDS011;18066;52.106;5.534;2022-07-19T02:59:02;18.20;;;8.88;;
18296;SDS011;18066;52.106;5.534;2022-07-19T03:01:29;11.57;;;7.93;;
18296;SDS011;18066;52.106;5.534;2022-07-19T03:03:56;14.77;;;8.82;;
18296;SDS011;18066;52.106;5.534;2022-07-19T03:06:24;17.27;;;7.97;;
18296;SDS011;18066;52.106;5.534;2022-07-19T03:08:51;16.48;;;8.20;;
18296;SDS011;18066;52.106;5.534;2022-07-19T03:11:18;16.83;;;7.93;;
18296;SDS011;18066;52.106;5.534;2022-07-19T03:13:45;14.30;;;8.38;;
18296;SDS011;18066;52.106;5.534;2022-07-19T03:16:11;17.90;;;8.35;;
18296;SDS011;18066;52.106;5.534;2022-07-19T03:18:38;17.08;;;8.18;;
18296;SDS011;18066;52.106;5.534;2022-07-19T03:21:05;14.80;;;8.40;;
18296;SDS011;18066;52.106;5.534;2022-07-19T03:23:34;15.35;;;8.27;;
18296;SDS011;18066;52.106;5.534;2022-07-19T03:26:03;17.08;;;8.43;;
18296;SDS011;18066;52.106;5.534;2022-07-19T03:28:31;11.35;;;7.22;;
18296;SDS011;18066;52.106;5.534;2022-07-19T03:30:57;12.10;;;7.72;;
18296;SDS011;18066;52.106;5.534;2022-07-19T03:33:24;10.55;;;7.25;;
18296;SDS011;18066;52.106;5.534;2022-07-19T03:35:51;14.35;;;8.15;;
18296;SDS011;18066;52.106;5.534;2022-07-19T03:38:18;16.60;;;8.20;;
18296;SDS011;18066;52.106;5.534;2022-07-19T03:40:46;13.70;;;7.70;;
18296;SDS011;18066;52.106;5.534;2022-07-19T03:43:13;12.38;;;8.15;;
18296;SDS011;18066;52.106;5.534;2022-07-19T03:45:41;9.15;;;7.82;;
18296;SDS011;18066;52.106;5.534;2022-07-19T03:48:07;13.43;;;7.80;;
18296;SDS011;18066;52.106;5.534;2022-07-19T03:50:34;13.88;;;8.13;;
18296;SDS011;18066;52.106;5.534;2022-07-19T03:53:01;15.13;;;8.27;;
18296;SDS011;18066;52.106;5.534;2022-07-19T03:55:28;16.63;;;7.75;;
18296;SDS011;18066;52.106;5.534;2022-07-19T03:57:56;12.43;;;7.75;;
18296;SDS011;18066;52.106;5.534;2022-07-19T04:00:23;11.82;;;8.38;;
18296;SDS011;18066;52.106;5.534;2022-07-19T04:02:49;11.43;;;7.68;;
18296;SDS011;18066;52.106;5.534;2022-07-19T04:05:16;13.35;;;7.30;;
18296;SDS011;18066;52.106;5.534;2022-07-19T04:07:43;11.68;;;7.68;;
18296;SDS011;18066;52.106;5.534;2022-07-19T04:10:10;11.77;;;8.15;;
18296;SDS011;18066;52.106;5.534;2022-07-19T04:12:37;10.63;;;7.45;;
18296;SDS011;18066;52.106;5.534;2022-07-19T04:15:05;11.23;;;7.53;;
18296;SDS011;18066;52.106;5.534;2022-07-19T04:17:33;11.88;;;7.30;;
18296;SDS011;18066;52.106;5.534;2022-07-19T04:20:00;9.45;;;6.97;;
18296;SDS011;18066;52.106;5.534;2022-07-19T04:22:26;11.45;;;7.65;;
18296;SDS011;18066;52.106;5.534;2022-07-19T04:24:55;10.32;;;7.57;;
18296;SDS011;18066;52.106;5.534;2022-07-19T04:27:21;13.13;;;7.65;;
18296;SDS011;18066;52.106;5.534;2022-07-19T04:29:48;10.18;;;7.40;;
18296;SDS011;18066;52.106;5.534;2022-07-19T04:32:16;9.20;;;8.30;;
18296;SDS011;18066;52.106;5.534;2022-07-19T04:34:43;11.07;;;8.50;;
18296;SDS011;18066;52.106;5.534;2022-07-19T04:37:10;9.52;;;8.38;;
18296;SDS011;18066;52.106;5.534;2022-07-19T04:39:36;11.02;;;8.15;;
18296;SDS011;18066;52.106;5.534;2022-07-19T04:42:03;9.80;;;7.60;;
18296;SDS011;18066;52.106;5.534;2022-07-19T04:44:30;9.55;;;7.78;;
18296;SDS011;18066;52.106;5.534;2022-07-19T04:46:56;12.55;;;8.38;;
18296;SDS011;18066;52.106;5.534;2022-07-19T04:49:24;9.13;;;8.23;;
18296;SDS011;18066;52.106;5.534;2022-07-19T04:51:51;12.82;;;8.18;;
18296;SDS011;18066;52.106;5.534;2022-07-19T04:54:18;12.68;;;9.07;;
18296;SDS011;18066;52.106;5.534;2022-07-19T04:56:44;14.23;;;8.70;;
18296;SDS011;18066;52.106;5.534;2022-07-19T04:59:11;10.85;;;8.68;;
18296;SDS011;18066;52.106;5.534;2022-07-19T05:01:38;11.85;;;9.23;;
18296;SDS011;18066;52.106;5.534;2022-07-19T05:04:05;14.65;;;8.75;;
18296;SDS011;18066;52.106;5.534;2022-07-19T05:06:33;15.85;;;8.93;;
18296;SDS011;18066;52.106;5.534;2022-07-19T05:08:59;12.07;;;9.10;;
18296;SDS011;18066;52.106;5.534;2022-07-19T05:11:26;9.90;;;8.80;;
18296;SDS011;18066;52.106;5.534;2022-07-19T05:13:53;13.23;;;9.75;;
18296;SDS011;18066;52.106;5.534;2022-07-19T05:16:19;12.82;;;9.80;;
18296;SDS011;18066;52.106;5.534;2022-07-19T05:18:46;13.02;;;9.23;;
18296;SDS011;18066;52.106;5.534;2022-07-19T05:21:13;10.15;;;9.10;;
18296;SDS011;18066;52.106;5.534;2022-07-19T05:23:41;10.65;;;9.48;;
18296;SDS011;18066;52.106;5.534;2022-07-19T05:26:08;9.43;;;8.43;;
18296;SDS011;18066;52.106;5.534;2022-07-19T05:28:35;11.05;;;8.52;;
18296;SDS011;18066;52.106;5.534;2022-07-19T05:31:02;13.63;;;8.88;;
18296;SDS011;18066;52.106;5.534;2022-07-19T05:33:30;12.68;;;9.30;;
18296;SDS011;18066;52.106;5.534;2022-07-19T05:35:56;10.77;;;9.40;;
18296;SDS011;18066;52.106;5.534;2022-07-19T05:38:23;10.23;;;8.48;;
18296;SDS011;18066;52.106;5.534;2022-07-19T05:40:51;10.25;;;8.15;;
18296;SDS011;18066;52.106;5.534;2022-07-19T05:43:18;14.18;;;8.73;;
18296;SDS011;18066;52.106;5.534;2022-07-19T05:45:44;18.20;;;8.82;;
18296;SDS011;18066;52.106;5.534;2022-07-19T05:48:11;9.80;;;7.82;;
18296;SDS011;18066;52.106;5.534;2022-07-19T05:50:38;10.55;;;7.90;;
18296;SDS011;18066;52.106;5.534;2022-07-19T05:53:05;10.98;;;7.85;;
18296;SDS011;18066;52.106;5.534;2022-07-19T05:55:31;10.85;;;7.97;;
18296;SDS011;18066;52.106;5.534;2022-07-19T05:57:59;11.07;;;6.63;;
18296;SDS011;18066;52.106;5.534;2022-07-19T06:00:26;9.73;;;7.60;;
18296;SDS011;18066;52.106;5.534;2022-07-19T06:02:53;10.60;;;7.00;;
18296;SDS011;18066;52.106;5.534;2022-07-19T06:05:20;13.73;;;8.00;;
18296;SDS011;18066;52.106;5.534;2022-07-19T06:07:47;8.82;;;6.63;;
18296;SDS011;18066;52.106;5.534;2022-07-19T06:10:13;9.60;;;7.10;;
18296;SDS011;18066;52.106;5.534;2022-07-19T06:12:40;13.13;;;7.25;;
18296;SDS011;18066;52.106;5.534;2022-07-19T06:15:09;10.80;;;6.82;;
18296;SDS011;18066;52.106;5.534;2022-07-19T06:17:36;7.95;;;6.65;;
18296;SDS011;18066;52.106;5.534;2022-07-19T06:20:03;10.30;;;6.25;;
18296;SDS011;18066;52.106;5.534;2022-07-19T06:22:31;16.10;;;7.85;;
18296;SDS011;18066;52.106;5.534;2022-07-19T06:24:58;10.75;;;6.80;;
18296;SDS011;18066;52.106;5.534;2022-07-19T06:27:24;13.95;;;7.78;;
18296;SDS011;18066;52.106;5.534;2022-07-19T06:29:51;11.40;;;6.60;;
18296;SDS011;18066;52.106;5.534;2022-07-19T06:32:19;11.35;;;6.75;;
18296;SDS011;18066;52.106;5.534;2022-07-19T06:34:46;9.60;;;6.97;;
18296;SDS011;18066;52.106;5.534;2022-07-19T06:37:12;12.82;;;6.95;;
18296;SDS011;18066;52.106;5.534;2022-07-19T06:39:39;14.77;;;6.93;;
18296;SDS011;18066;52.106;5.534;2022-07-19T06:42:06;14.07;;;6.68;;
18296;SDS011;18066;52.106;5.534;2022-07-19T06:44:33;8.45;;;6.03;;
18296;SDS011;18066;52.106;5.534;2022-07-19T06:46:59;12.80;;;6.75;;
18296;SDS011;18066;52.106;5.534;2022-07-19T06:49:27;8.35;;;6.07;;
18296;SDS011;18066;52.106;5.534;2022-07-19T06:51:54;11.85;;;6.75;;
18296;SDS011;18066;52.106;5.534;2022-07-19T06:54:21;11.32;;;6.25;;
18296;SDS011;18066;52.106;5.534;2022-07-19T06:56:47;12.38;;;5.85;;
18296;SDS011;18066;52.106;5.534;2022-07-19T06:59:14;10.70;;;5.60;;
18296;SDS011;18066;52.106;5.534;2022-07-19T07:01:41;10.65;;;6.03;;
18296;SDS011;18066;52.106;5.534;2022-07-19T07:04:07;11.73;;;5.90;;
18296;SDS011;18066;52.106;5.534;2022-07-19T07:06:36;12.52;;;5.60;;
18296;SDS011;18066;52.106;5.534;2022-07-19T07:09:03;10.35;;;5.53;;
18296;SDS011;18066;52.106;5.534;2022-07-19T07:11:30;9.63;;;5.57;;
18296;SDS011;18066;52.106;5.534;2022-07-19T07:13:57;9.00;;;5.65;;
18296;SDS011;18066;52.106;5.534;2022-07-19T07:16:23;9.60;;;5.80;;
18296;SDS011;18066;52.106;5.534;2022-07-19T07:18:50;9.75;;;6.05;;
18296;SDS011;18066;52.106;5.534;2022-07-19T07:21:17;8.82;;;6.50;;
18296;SDS011;18066;52.106;5.534;2022-07-19T07:23:45;9.30;;;5.63;;
18296;SDS011;18066;52.106;5.534;2022-07-19T07:26:12;17.58;;;7.47;;
18296;SDS011;18066;52.106;5.534;2022-07-19T07:28:39;9.55;;;6.10;;
18296;SDS011;18066;52.106;5.534;2022-07-19T07:31:05;9.93;;;6.72;;
18296;SDS011;18066;52.106;5.534;2022-07-19T07:33:32;12.60;;;6.20;;
18296;SDS011;18066;52.106;5.534;2022-07-19T07:35:59;14.82;;;6.28;;
18296;SDS011;18066;52.106;5.534;2022-07-19T07:38:25;10.35;;;5.88;;
18296;SDS011;18066;52.106;5.534;2022-07-19T07:40:53;7.95;;;5.40;;
18296;SDS011;18066;52.106;5.534;2022-07-19T07:43:21;9.07;;;5.63;;
18296;SDS011;18066;52.106;5.534;2022-07-19T07:45:48;11.18;;;5.35;;
18296;SDS011;18066;52.106;5.534;2022-07-19T07:48:14;7.90;;;4.65;;
18296;SDS011;18066;52.106;5.534;2022-07-19T07:50:41;8.48;;;4.93;;
18296;SDS011;18066;52.106;5.534;2022-07-19T07:53:08;26.10;;;6.18;;
18296;SDS011;18066;52.106;5.534;2022-07-19T07:55:35;7.53;;;4.60;;
18296;SDS011;18066;52.106;5.534;2022-07-19T07:58:06;6.43;;;4.30;;
18296;SDS011;18066;52.106;5.534;2022-07-19T08:00:33;8.02;;;4.38;;
18296;SDS011;18066;52.106;5.534;2022-07-19T08:03:00;10.90;;;4.15;;
18296;SDS011;18066;52.106;5.534;2022-07-19T08:05:26;8.60;;;4.10;;
18296;SDS011;18066;52.106;5.534;2022-07-19T08:07:53;8.70;;;3.92;;
18296;SDS011;18066;52.106;5.534;2022-07-19T08:10:20;7.53;;;3.65;;
18296;SDS011;18066;52.106;5.534;2022-07-19T08:12:48;5.30;;;2.78;;
18296;SDS011;18066;52.106;5.534;2022-07-19T08:15:17;6.25;;;3.05;;
18296;SDS011;18066;52.106;5.534;2022-07-19T08:17:44;6.70;;;2.53;;
18296;SDS011;18066;52.106;5.534;2022-07-19T08:20:11;8.20;;;3.15;;
18296;SDS011;18066;52.106;5.534;2022-07-19T08:22:38;7.43;;;2.88;;
18296;SDS011;18066;52.106;5.534;2022-07-19T08:25:05;9.80;;;2.75;;
18296;SDS011;18066;52.106;5.534;2022-07-19T08:27:32;4.70;;;2.63;;
18296;SDS011;18066;52.106;5.534;2022-07-19T08:29:59;6.15;;;2.60;;
18296;SDS011;18066;52.106;5.534;2022-07-19T08:32:28;3.72;;;2.50;;
18296;SDS011;18066;52.106;5.534;2022-07-19T08:34:54;7.43;;;3.10;;
18296;SDS011;18066;52.106;5.534;2022-07-19T08:37:21;8.85;;;2.80;;
18296;SDS011;18066;52.106;5.534;2022-07-19T08:39:47;5.60;;;2.78;;
18296;SDS011;18066;52.106;5.534;2022-07-19T08:42:16;4.82;;;2.40;;
18296;SDS011;18066;52.106;5.534;2022-07-19T08:44:45;4.40;;;2.50;;
18296;SDS011;18066;52.106;5.534;2022-07-19T08:47:17;3.78;;;2.38;;
18296;SDS011;18066;52.106;5.534;2022-07-19T08:49:46;10.10;;;2.70;;
18296;SDS011;18066;52.106;5.534;2022-07-19T08:52:13;4.32;;;2.60;;
18296;SDS011;18066;52.106;5.534;2022-07-19T08:54:40;3.45;;;2.20;;
18296;SDS011;18066;52.106;5.534;2022-07-19T08:57:07;4.60;;;2.33;;
18296;SDS011;18066;52.106;5.534;2022-07-19T08:59:52;5.18;;;2.45;;
18296;SDS011;18066;52.106;5.534;2022-07-19T09:02:18;5.00;;;2.67;;
18296;SDS011;18066;52.106;5.534;2022-07-19T09:04:50;7.28;;;2.55;;
18296;SDS011;18066;52.106;5.534;2022-07-19T09:07:25;7.68;;;2.58;;
18296;SDS011;18066;52.106;5.534;2022-07-19T09:09:52;5.35;;;2.42;;
18296;SDS011;18066;52.106;5.534;2022-07-19T09:15:41;10.10;;;2.50;;
18296;SDS011;18066;52.106;5.534;2022-07-19T09:18:10;2.88;;;1.90;;
18296;SDS011;18066;52.106;5.534;2022-07-19T09:20:39;4.90;;;2.10;;
18296;SDS011;18066;52.106;5.534;2022-07-19T09:23:07;4.47;;;2.05;;
18296;SDS011;18066;52.106;5.534;2022-07-19T09:25:34;5.10;;;1.70;;
18296;SDS011;18066;52.106;5.534;2022-07-19T09:28:03;5.55;;;1.88;;
18296;SDS011;18066;52.106;5.534;2022-07-19T09:30:33;3.85;;;2.20;;
18296;SDS011;18066;52.106;5.534;2022-07-19T09:33:09;6.65;;;2.10;;
18296;SDS011;18066;52.106;5.534;2022-07-19T09:35:40;4.72;;;2.08;;
18296;SDS011;18066;52.106;5.534;2022-07-19T09:38:18;9.05;;;2.10;;
18296;SDS011;18066;52.106;5.534;2022-07-19T09:40:46;3.97;;;2.00;;
18296;SDS011;18066;52.106;5.534;2022-07-19T09:43:13;4.57;;;2.20;;
18296;SDS011;18066;52.106;5.534;2022-07-19T09:45:41;3.72;;;2.25;;
18296;SDS011;18066;52.106;5.534;2022-07-19T09:48:09;3.38;;;1.98;;
18296;SDS011;18066;52.106;5.534;2022-07-19T09:50:36;6.47;;;2.65;;
18296;SDS011;18066;52.106;5.534;2022-07-19T09:53:05;4.13;;;2.78;;
18296;SDS011;18066;52.106;5.534;2022-07-19T09:55:32;7.57;;;2.72;;
18296;SDS011;18066;52.106;5.534;2022-07-19T09:57:59;6.57;;;2.75;;
18296;SDS011;18066;52.106;5.534;2022-07-19T10:00:28;5.55;;;2.53;;
18296;SDS011;18066;52.106;5.534;2022-07-19T10:02:56;6.68;;;2.97;;
18296;SDS011;18066;52.106;5.534;2022-07-19T10:05:24;6.88;;;2.65;;
18296;SDS011;18066;52.106;5.534;2022-07-19T10:07:52;7.32;;;2.95;;
18296;SDS011;18066;52.106;5.534;2022-07-19T10:10:21;8.07;;;2.72;;
18296;SDS011;18066;52.106;5.534;2022-07-19T10:12:50;10.27;;;2.60;;
18296;SDS011;18066;52.106;5.534;2022-07-19T10:15:17;3.58;;;2.25;;
18296;SDS011;18066;52.106;5.534;2022-07-19T10:17:50;6.93;;;2.55;;
18296;SDS011;18066;52.106;5.534;2022-07-19T10:20:26;3.88;;;2.25;;
18296;SDS011;18066;52.106;5.534;2022-07-19T10:22:56;6.18;;;2.50;;
18296;SDS011;18066;52.106;5.534;2022-07-19T10:25:25;4.70;;;2.30;;
18296;SDS011;18066;52.106;5.534;2022-07-19T10:28:04;3.72;;;2.42;;
18296;SDS011;18066;52.106;5.534;2022-07-19T10:30:39;3.55;;;2.42;;
18296;SDS011;18066;52.106;5.534;2022-07-19T10:35:55;12.32;;;2.30;;
18296;SDS011;18066;52.106;5.534;2022-07-19T10:38:23;4.13;;;2.08;;
18296;SDS011;18066;52.106;5.534;2022-07-19T10:40:51;4.85;;;2.55;;
18296;SDS011;18066;52.106;5.534;2022-07-19T10:43:23;4.35;;;2.42;;
18296;SDS011;18066;52.106;5.534;2022-07-19T10:46:08;6.53;;;2.58;;
18296;SDS011;18066;52.106;5.534;2022-07-19T10:48:38;4.20;;;2.47;;
18296;SDS011;18066;52.106;5.534;2022-07-19T10:51:06;4.95;;;2.10;;
18296;SDS011;18066;52.106;5.534;2022-07-19T10:56:23;5.57;;;1.98;;
18296;SDS011;18066;52.106;5.534;2022-07-19T10:58:52;8.65;;;2.10;;
18296;SDS011;18066;52.106;5.534;2022-07-19T11:01:21;7.50;;;2.10;;
18296;SDS011;18066;52.106;5.534;2022-07-19T11:03:49;4.72;;;2.20;;
18296;SDS011;18066;52.106;5.534;2022-07-19T11:06:21;4.60;;;2.10;;
18296;SDS011;18066;52.106;5.534;2022-07-19T11:08:51;3.78;;;2.20;;
18296;SDS011;18066;52.106;5.534;2022-07-19T11:11:20;3.15;;;1.70;;
18296;SDS011;18066;52.106;5.534;2022-07-19T11:13:51;3.58;;;1.98;;
18296;SDS011;18066;52.106;5.534;2022-07-19T11:16:18;5.78;;;2.15;;
18296;SDS011;18066;52.106;5.534;2022-07-19T11:18:45;4.32;;;1.88;;
18296;SDS011;18066;52.106;5.534;2022-07-19T11:21:13;5.32;;;1.98;;
18296;SDS011;18066;52.106;5.534;2022-07-19T11:23:42;6.43;;;2.28;;
18296;SDS011;18066;52.106;5.534;2022-07-19T11:26:11;2.53;;;1.92;;
18296;SDS011;18066;52.106;5.534;2022-07-19T11:28:41;3.15;;;1.95;;
18296;SDS011;18066;52.106;5.534;2022-07-19T11:31:12;3.03;;;1.77;;
18296;SDS011;18066;52.106;5.534;2022-07-19T11:33:40;4.18;;;1.92;;
18296;SDS011;18066;52.106;5.534;2022-07-19T11:36:07;4.55;;;1.48;;
18296;SDS011;18066;52.106;5.534;2022-07-19T11:38:36;2.90;;;1.83;;
18296;SDS011;18066;52.106;5.534;2022-07-19T11:41:07;2.63;;;1.75;;
18296;SDS011;18066;52.106;5.534;2022-07-19T11:43:34;2.05;;;1.58;;
18296;SDS011;18066;52.106;5.534;2022-07-19T11:46:02;3.97;;;1.95;;
18296;SDS011;18066;52.106;5.534;2022-07-19T11:48:30;5.03;;;2.75;;
18296;SDS011;18066;52.106;5.534;2022-07-19T11:50:58;5.38;;;1.80;;
18296;SDS011;18066;52.106;5.534;2022-07-19T11:53:26;5.72;;;2.00;;
18296;SDS011;18066;52.106;5.534;2022-07-19T11:55:53;4.55;;;1.80;;
18296;SDS011;18066;52.106;5.534;2022-07-19T11:58:21;5.95;;;1.85;;
18296;SDS011;18066;52.106;5.534;2022-07-19T12:00:48;2.80;;;2.03;;
18296;SDS011;18066;52.106;5.534;2022-07-19T12:03:17;7.22;;;1.60;;
18296;SDS011;18066;52.106;5.534;2022-07-19T12:05:54;3.95;;;2.03;;
18296;SDS011;18066;52.106;5.534;2022-07-19T12:08:31;3.95;;;1.90;;
18296;SDS011;18066;52.106;5.534;2022-07-19T12:10:59;6.57;;;2.08;;
18296;SDS011;18066;52.106;5.534;2022-07-19T12:13:29;4.20;;;2.25;;
18296;SDS011;18066;52.106;5.534;2022-07-19T12:15:58;4.00;;;2.00;;
18296;SDS011;18066;52.106;5.534;2022-07-19T12:18:44;1.92;;;1.73;;
18296;SDS011;18066;52.106;5.534;2022-07-19T12:21:19;5.30;;;2.00;;
18296;SDS011;18066;52.106;5.534;2022-07-19T12:26:44;3.38;;;1.60;;
18296;SDS011;18066;52.106;5.534;2022-07-19T12:29:21;3.60;;;1.88;;
18296;SDS011;18066;52.106;5.534;2022-07-19T12:31:51;4.13;;;1.77;;
18296;SDS011;18066;52.106;5.534;2022-07-19T12:34:21;2.58;;;1.40;;
18296;SDS011;18066;52.106;5.534;2022-07-19T12:36:48;3.17;;;1.50;;
18296;SDS011;18066;52.106;5.534;2022-07-19T12:39:19;1.90;;;1.52;;
18296;SDS011;18066;52.106;5.534;2022-07-19T12:41:52;2.47;;;1.50;;
18296;SDS011;18066;52.106;5.534;2022-07-19T12:44:30;2.25;;;1.35;;
18296;SDS011;18066;52.106;5.534;2022-07-19T12:46:58;4.75;;;1.90;;
18296;SDS011;18066;52.106;5.534;2022-07-19T12:49:31;3.38;;;1.67;;
18296;SDS011;18066;52.106;5.534;2022-07-19T12:52:06;4.68;;;1.70;;
18296;SDS011;18066;52.106;5.534;2022-07-19T12:54:33;2.40;;;1.30;;
18296;SDS011;18066;52.106;5.534;2022-07-19T12:57:00;2.13;;;1.33;;
18296;SDS011;18066;52.106;5.534;2022-07-19T12:59:27;1.55;;;1.30;;
18296;SDS011;18066;52.106;5.534;2022-07-19T13:02:06;2.83;;;1.75;;
18296;SDS011;18066;52.106;5.534;2022-07-19T13:04:35;5.75;;;1.50;;
18296;SDS011;18066;52.106;5.534;2022-07-19T13:07:02;2.22;;;1.40;;
18296;SDS011;18066;52.106;5.534;2022-07-19T13:09:29;2.47;;;1.35;;
18296;SDS011;18066;52.106;5.534;2022-07-19T13:11:56;1.90;;;1.48;;
18296;SDS011;18066;52.106;5.534;2022-07-19T13:14:23;2.20;;;1.45;;
18296;SDS011;18066;52.106;5.534;2022-07-19T13:16:49;1.90;;;1.42;;
18296;SDS011;18066;52.106;5.534;2022-07-19T13:19:16;4.15;;;1.80;;
18296;SDS011;18066;52.106;5.534;2022-07-19T13:21:44;2.47;;;1.17;;
18296;SDS011;18066;52.106;5.534;2022-07-19T13:24:11;4.63;;;1.70;;
18296;SDS011;18066;52.106;5.534;2022-07-19T13:26:38;3.13;;;1.67;;
18296;SDS011;18066;52.106;5.534;2022-07-19T13:29:05;4.93;;;1.60;;
18296;SDS011;18066;52.106;5.534;2022-07-19T13:31:32;6.85;;;1.67;;
18296;SDS011;18066;52.106;5.534;2022-07-19T13:33:59;2.40;;;1.63;;
18296;SDS011;18066;52.106;5.534;2022-07-19T13:36:25;3.60;;;1.70;;
18296;SDS011;18066;52.106;5.534;2022-07-19T13:38:53;1.60;;;1.30;;
18296;SDS011;18066;52.106;5.534;2022-07-19T13:41:20;3.25;;;1.45;;
18296;SDS011;18066;52.106;5.534;2022-07-19T13:43:47;4.45;;;1.77;;
18296;SDS011;18066;52.106;5.534;2022-07-19T13:46:13;4.90;;;2.10;;
18296;SDS011;18066;52.106;5.534;2022-07-19T13:48:40;5.13;;;1.70;;
18296;SDS011;18066;52.106;5.534;2022-07-19T13:51:07;4.95;;;1.60;;
18296;SDS011;18066;52.106;5.534;2022-07-19T13:53:34;2.38;;;1.90;;
18296;SDS011;18066;52.106;5.534;2022-07-19T13:56:03;2.97;;;1.85;;
18296;SDS011;18066;52.106;5.534;2022-07-19T13:58:30;9.25;;;2.00;;
18296;SDS011;18066;52.106;5.534;2022-07-19T14:00:57;2.38;;;1.50;;
18296;SDS011;18066;52.106;5.534;2022-07-19T14:03:23;4.75;;;2.00;;
18296;SDS011;18066;52.106;5.534;2022-07-19T14:05:50;9.38;;;2.08;;
18296;SDS011;18066;52.106;5.534;2022-07-19T14:08:17;3.08;;;1.80;;
18296;SDS011;18066;52.106;5.534;2022-07-19T14:10:44;2.58;;;1.70;;
18296;SDS011;18066;52.106;5.534;2022-07-19T14:13:12;2.88;;;2.00;;
18296;SDS011;18066;52.106;5.534;2022-07-19T14:15:39;8.52;;;1.98;;
18296;SDS011;18066;52.106;5.534;2022-07-19T14:18:06;5.05;;;1.80;;
18296;SDS011;18066;52.106;5.534;2022-07-19T14:20:33;8.60;;;1.75;;
18296;SDS011;18066;52.106;5.534;2022-07-19T14:23:00;2.58;;;1.50;;
18296;SDS011;18066;52.106;5.534;2022-07-19T14:25:27;6.13;;;1.95;;
18296;SDS011;18066;52.106;5.534;2022-07-19T14:27:53;4.40;;;1.70;;
18296;SDS011;18066;52.106;5.534;2022-07-19T14:30:22;3.33;;;1.30;;
18296;SDS011;18066;52.106;5.534;2022-07-19T14:32:49;4.38;;;1.67;;
18296;SDS011;18066;52.106;5.534;2022-07-19T14:35:16;4.22;;;1.67;;
18296;SDS011;18066;52.106;5.534;2022-07-19T14:37:43;6.07;;;1.70;;
18296;SDS011;18066;52.106;5.534;2022-07-19T14:40:10;8.77;;;1.70;;
18296;SDS011;18066;52.106;5.534;2022-07-19T14:42:37;6.00;;;1.75;;
18296;SDS011;18066;52.106;5.534;2022-07-19T14:45:04;2.78;;;1.35;;
18296;SDS011;18066;52.106;5.534;2022-07-19T14:47:33;8.15;;;1.60;;
18296;SDS011;18066;52.106;5.534;2022-07-19T14:50:00;3.17;;;1.50;;
18296;SDS011;18066;52.106;5.534;2022-07-19T14:52:28;6.07;;;1.85;;
18296;SDS011;18066;52.106;5.534;2022-07-19T14:54:55;3.97;;;1.63;;
18296;SDS011;18066;52.106;5.534;2022-07-19T14:57:22;5.10;;;2.05;;